createdAt,value
2023-05-11T00:01:49.311Z,100938.22
2023-05-11T00:04:16.113Z,100940.50
2023-05-11T00:06:43.039Z,100952.06
2023-05-11T00:09:11.296Z,100940.34
2023-05-11T00:11:38.248Z,100951.03
2023-05-11T00:14:05.203Z,100943.69
2023-05-11T00:16:32.167Z,100931.47
2023-05-11T00:18:59.182Z,100940.34
2023-05-11T00:21:26.167Z,100943.16
2023-05-11T00:23:52.924Z,100928.03
2023-05-11T00:26:19.647Z,100930.34
2023-05-11T00:28:46.466Z,100901.69
2023-05-11T00:31:13.314Z,100931.47
2023-05-11T00:33:40.074Z,100926.16
2023-05-11T00:36:08.243Z,100908.59
2023-05-11T00:38:36.797Z,100925.41
2023-05-11T00:41:03.533Z,100925.13
2023-05-11T00:43:30.524Z,100930.84
2023-05-11T00:45:57.374Z,100921.94
2023-05-11T00:48:24.221Z,100937.84
2023-05-11T00:50:51.115Z,100907.31
2023-05-11T00:53:18.093Z,100918.38
2023-05-11T00:55:44.949Z,100939.69
2023-05-11T00:58:11.950Z,100929.03
2023-05-11T01:00:39.108Z,100921.19
2023-05-11T01:03:05.972Z,100923.50
2023-05-11T01:05:42.244Z,100886.22
2023-05-11T01:08:19.069Z,100911.50
2023-05-11T01:10:49.668Z,100901.66
2023-05-11T01:13:32.961Z,100908.47
2023-05-11T01:15:59.831Z,100894.34
2023-05-11T01:18:40.552Z,100904.06
2023-05-11T01:21:07.474Z,100898.53
2023-05-11T01:23:48.776Z,100885.03
2023-05-11T01:26:37.844Z,100894.25
2023-05-11T01:29:16.126Z,100893.25
2023-05-11T01:31:43.370Z,100884.44
2023-05-11T01:34:13.341Z,100859.38
2023-05-11T01:36:44.771Z,100903.25
2023-05-11T01:39:11.722Z,100898.53
2023-05-11T01:41:39.538Z,100895.81
2023-05-11T01:44:08.147Z,100840.28
2023-05-11T01:46:35.174Z,100857.38
2023-05-11T01:49:03.664Z,100882.97
2023-05-11T01:51:34.391Z,100835.59
2023-05-11T01:54:01.143Z,100835.59
2023-05-11T01:56:28.100Z,100861.50
2023-05-11T01:58:55.703Z,100851.16
2023-05-11T02:01:22.826Z,100888.69
2023-05-11T02:03:50.143Z,100858.69
2023-05-11T02:06:18.264Z,100854.50
2023-05-11T02:08:45.372Z,100861.72
2023-05-11T02:11:12.084Z,100857.09
2023-05-11T02:13:39.527Z,100804.41
2023-05-11T02:16:06.822Z,100871.06
2023-05-11T02:18:33.578Z,100875.38
2023-05-11T02:21:00.650Z,100873.16
2023-05-11T02:23:27.880Z,100806.56
2023-05-11T02:25:54.656Z,100883.25
2023-05-11T02:28:21.511Z,100850.34
2023-05-11T02:30:54.298Z,100873.22
2023-05-11T02:33:24.938Z,100883.25
2023-05-11T02:35:52.014Z,100883.59
2023-05-11T02:38:18.862Z,100871.00
2023-05-11T02:40:50.566Z,100885.03
2023-05-11T02:43:24.857Z,100845.63
2023-05-11T02:45:54.539Z,100862.72
2023-05-11T02:48:27.076Z,100833.56
2023-05-11T02:50:55.391Z,100760.81
2023-05-11T02:53:22.989Z,100872.88
2023-05-11T02:55:50.968Z,100883.53
2023-05-11T02:58:18.682Z,100878.19
2023-05-11T03:00:45.672Z,100884.41
2023-05-11T03:03:12.692Z,100881.09
2023-05-11T03:05:40.074Z,100887.59
2023-05-11T03:08:06.841Z,100900.00
2023-05-11T03:10:34.488Z,100892.72
2023-05-11T03:13:01.486Z,100898.94
2023-05-11T03:15:28.258Z,100895.59
2023-05-11T03:17:55.202Z,100884.09
2023-05-11T03:20:22.171Z,100793.53
2023-05-11T03:22:48.921Z,100868.22
2023-05-11T03:25:16.108Z,100868.81
2023-05-11T03:27:43.063Z,100878.41
2023-05-11T03:30:10.339Z,100836.34
2023-05-11T03:32:37.129Z,100879.22
2023-05-11T03:35:04.171Z,100819.63
2023-05-11T03:37:31.460Z,100884.09
2023-05-11T03:39:59.439Z,100872.91
2023-05-11T03:42:26.891Z,100835.22
2023-05-11T03:44:56.069Z,100875.13
2023-05-11T03:47:22.860Z,100852.91
2023-05-11T03:49:50.151Z,100886.38
2023-05-11T03:52:17.313Z,100854.28
2023-05-11T03:54:44.034Z,100872.91
2023-05-11T03:57:11.411Z,100833.59
2023-05-11T03:59:41.315Z,100852.22
2023-05-11T04:02:08.681Z,100848.44
2023-05-11T04:04:35.794Z,100865.81
2023-05-11T04:07:02.546Z,100873.66
2023-05-11T04:09:29.352Z,100841.38
2023-05-11T04:11:56.322Z,100877.13
2023-05-11T04:14:23.173Z,100821.63
2023-05-11T04:16:49.905Z,100829.16
2023-05-11T04:19:17.071Z,100809.69
2023-05-11T04:21:44.395Z,100863.03
2023-05-11T04:24:11.130Z,100879.28
2023-05-11T04:26:38.043Z,100840.75
2023-05-11T04:29:05.182Z,100776.38
2023-05-11T04:31:32.687Z,100879.09
2023-05-11T04:33:59.683Z,100881.03
2023-05-11T04:36:26.522Z,100872.50
2023-05-11T04:38:53.794Z,100889.63
2023-05-11T04:41:21.088Z,100848.88
2023-05-11T04:43:47.851Z,100869.28
2023-05-11T04:46:15.490Z,100839.66
2023-05-11T04:48:42.523Z,100857.47
2023-05-11T04:51:10.125Z,100889.31
2023-05-11T04:53:36.869Z,100887.09
2023-05-11T04:56:03.945Z,100828.25
2023-05-11T04:58:31.226Z,100891.09
2023-05-11T05:00:58.032Z,100891.09
2023-05-11T05:03:25.159Z,100893.38
2023-05-11T05:05:52.096Z,100833.63
2023-05-11T05:08:18.920Z,100895.44
2023-05-11T05:10:47.055Z,100896.81
2023-05-11T05:13:14.349Z,100892.38
2023-05-11T05:15:41.104Z,100824.31
2023-05-11T05:18:08.162Z,100901.41
2023-05-11T05:20:35.427Z,100894.66
2023-05-11T05:23:02.564Z,100862.28
2023-05-11T05:25:29.653Z,100870.13
2023-05-11T05:27:56.392Z,100908.69
2023-05-11T05:30:23.376Z,100904.47
2023-05-11T05:32:51.030Z,100906.97
2023-05-11T05:35:17.874Z,100898.53
2023-05-11T05:37:44.674Z,100910.31
2023-05-11T05:40:11.658Z,100912.59
2023-05-11T05:42:39.067Z,100910.31
2023-05-11T05:45:06.508Z,100914.81
2023-05-11T05:47:33.569Z,100905.28
2023-05-11T05:50:00.389Z,100917.06
2023-05-11T05:52:27.271Z,100880.22
2023-05-11T05:54:54.184Z,100913.06
2023-05-11T05:57:21.160Z,100902.41
2023-05-11T05:59:47.909Z,100854.88
2023-05-11T06:02:14.913Z,100901.44
2023-05-11T06:04:42.378Z,100906.06
2023-05-11T06:07:09.313Z,100920.38
2023-05-11T06:09:37.916Z,100916.72
2023-05-11T06:12:06.344Z,100920.81
2023-05-11T06:14:33.207Z,100918.28
2023-05-11T06:17:00.169Z,100917.94
2023-05-11T06:19:26.932Z,100927.66
2023-05-11T06:21:53.937Z,100925.78
2023-05-11T06:24:20.869Z,100889.09
2023-05-11T06:26:47.855Z,100932.94
2023-05-11T06:29:14.650Z,100896.03
2023-05-11T06:31:41.766Z,100907.38
2023-05-11T06:34:09.669Z,100903.28
2023-05-11T06:36:36.437Z,100930.81
2023-05-11T06:39:03.395Z,100925.56
2023-05-11T06:41:30.198Z,100924.25
2023-05-11T06:43:56.937Z,100936.06
2023-05-11T06:46:23.963Z,100912.91
2023-05-11T06:48:50.705Z,100935.75
2023-05-11T06:51:17.619Z,100944.72
2023-05-11T06:53:44.642Z,100937.69
2023-05-11T06:56:11.636Z,100936.44
2023-05-11T06:58:38.470Z,100937.44
2023-05-11T07:01:09.907Z,100939.91
2023-05-11T07:03:36.726Z,100946.19
2023-05-11T07:06:03.716Z,100923.88
2023-05-11T07:08:30.648Z,100945.91
2023-05-11T07:10:57.393Z,100895.25
2023-05-11T07:13:24.122Z,100950.00
2023-05-11T07:15:51.183Z,100949.78
2023-05-11T07:18:18.031Z,100949.69
2023-05-11T07:20:46.980Z,100956.72
2023-05-11T07:23:13.927Z,100949.66
2023-05-11T07:25:40.842Z,100949.22
2023-05-11T07:28:07.657Z,100953.25
2023-05-11T07:30:34.550Z,100945.31
2023-05-11T07:33:02.749Z,100939.50
2023-05-11T07:35:29.745Z,100951.66
2023-05-11T07:37:56.582Z,100928.16
2023-05-11T07:40:23.373Z,100943.50
2023-05-11T07:42:50.175Z,100948.38
2023-05-11T07:45:17.037Z,100941.56
2023-05-11T07:47:45.277Z,100946.38
2023-05-11T07:50:12.859Z,100858.53
2023-05-11T07:52:39.864Z,100944.09
2023-05-11T07:55:06.971Z,100918.88
2023-05-11T07:57:33.798Z,100910.75
2023-05-11T08:00:00.970Z,100937.09
2023-05-11T08:02:28.164Z,100943.25
2023-05-11T08:04:55.056Z,100953.88
2023-05-11T08:07:21.914Z,100939.50
2023-05-11T08:09:48.788Z,100948.50
2023-05-11T08:12:15.542Z,100913.97
2023-05-11T08:14:43.465Z,100941.06
2023-05-11T08:17:11.002Z,100918.22
2023-05-11T08:19:38.038Z,100899.84
2023-05-11T08:22:05.050Z,100937.47
2023-05-11T08:24:31.885Z,100900.78
2023-05-11T08:26:58.696Z,100932.03
2023-05-11T08:29:27.637Z,100931.34
2023-05-11T08:31:54.581Z,100925.97
2023-05-11T08:34:22.521Z,100873.63
2023-05-11T08:36:49.672Z,100919.06
2023-05-11T08:39:24.856Z,100932.09
2023-05-11T08:42:05.552Z,100924.03
2023-05-11T08:44:33.809Z,100905.22
2023-05-11T08:47:18.975Z,100920.25
2023-05-11T08:49:47.819Z,100904.66
2023-05-11T08:52:14.591Z,100897.03
2023-05-11T08:54:41.328Z,100930.00
2023-05-11T08:57:08.307Z,100880.91
2023-05-11T08:59:35.118Z,100935.34
2023-05-11T09:02:02.006Z,100924.59
2023-05-11T09:04:28.863Z,100918.56
2023-05-11T09:06:55.587Z,100917.75
2023-05-11T09:09:23.154Z,100918.38
2023-05-11T09:11:50.032Z,100922.38
2023-05-11T09:14:16.771Z,100927.13
2023-05-11T09:16:43.531Z,100923.81
2023-05-11T09:19:14.228Z,100925.47
2023-05-11T09:21:40.962Z,100843.59
2023-05-11T09:24:07.718Z,100920.00
2023-05-11T09:26:34.693Z,100912.13
2023-05-11T09:29:02.985Z,100920.44
2023-05-11T09:31:44.299Z,100916.38
2023-05-11T09:34:18.158Z,100922.47
2023-05-11T09:36:46.121Z,100907.00
2023-05-11T09:39:15.899Z,100883.84
2023-05-11T09:41:43.663Z,100904.38
2023-05-11T09:44:15.359Z,100914.78
2023-05-11T09:46:44.016Z,100905.06
2023-05-11T09:49:11.591Z,100905.41
2023-05-11T09:51:40.751Z,100905.66
2023-05-11T09:54:17.894Z,100910.19
2023-05-11T09:56:46.619Z,100904.56
2023-05-11T09:59:15.822Z,100914.25
2023-05-11T10:01:42.768Z,100903.22
2023-05-11T10:04:22.206Z,100898.31
2023-05-11T10:06:53.250Z,100913.72
2023-05-11T10:09:24.513Z,100901.34
2023-05-11T10:11:51.445Z,100898.75
2023-05-11T10:14:18.320Z,100915.53
2023-05-11T10:16:45.240Z,100904.69
2023-05-11T10:19:13.110Z,100917.88
2023-05-11T10:21:40.216Z,100907.53
2023-05-11T10:24:07.845Z,100892.63
2023-05-11T10:26:34.722Z,100920.34
2023-05-11T10:29:01.604Z,100890.78
2023-05-11T10:31:29.530Z,100918.78
2023-05-11T10:33:57.435Z,100896.41
2023-05-11T10:36:24.576Z,100910.09
2023-05-11T10:38:51.586Z,100889.47
2023-05-11T10:41:40.350Z,100890.50
2023-05-11T10:44:07.440Z,100909.66
2023-05-11T10:46:55.769Z,100904.75
2023-05-11T10:49:44.149Z,100898.19
2023-05-11T10:52:21.206Z,100919.28
2023-05-11T10:54:56.856Z,100907.69
2023-05-11T10:58:07.359Z,100902.22
2023-05-11T11:00:56.052Z,100907.78
2023-05-11T11:03:22.810Z,100904.31
2023-05-11T11:05:49.734Z,100892.94
2023-05-11T11:08:16.700Z,100891.84
2023-05-11T11:10:46.871Z,100879.47
2023-05-11T11:13:14.485Z,100871.59
2023-05-11T11:15:56.567Z,100886.53
2023-05-11T11:18:27.740Z,100859.94
2023-05-11T11:20:55.616Z,100878.53
2023-05-11T11:23:44.381Z,100871.22
2023-05-11T11:26:11.730Z,100860.47
2023-05-11T11:29:00.980Z,100860.94
2023-05-11T11:31:28.312Z,100865.94
2023-05-11T11:33:59.431Z,100823.53
2023-05-11T11:37:02.037Z,100858.66
2023-05-11T11:39:30.555Z,100852.00
2023-05-11T11:42:04.861Z,100829.22
2023-05-11T11:44:31.965Z,100841.78
2023-05-11T11:47:22.277Z,100845.94
2023-05-11T11:49:53.650Z,100829.25
2023-05-11T11:52:30.188Z,100845.78
2023-05-11T11:55:00.840Z,100834.75
2023-05-11T11:57:33.404Z,100835.16
2023-05-11T12:00:00.775Z,100846.41
2023-05-11T12:02:29.260Z,100831.28
2023-05-11T12:05:13.206Z,100833.06
2023-05-11T12:07:47.464Z,100834.03
2023-05-11T12:10:14.883Z,100817.22
2023-05-11T12:12:45.546Z,100822.59
2023-05-11T12:15:28.862Z,100790.50
2023-05-11T12:17:56.219Z,100821.91
2023-05-11T12:20:23.417Z,100806.69
2023-05-11T12:22:50.597Z,100798.03
2023-05-11T12:25:18.474Z,100789.78
2023-05-11T12:27:57.781Z,100788.06
2023-05-11T12:30:29.650Z,100794.56
2023-05-11T12:32:57.519Z,100775.94
2023-05-11T12:35:27.914Z,100800.09
2023-05-11T12:37:54.786Z,100798.22
2023-05-11T12:40:21.546Z,100795.56
2023-05-11T12:42:55.212Z,100783.47
2023-05-11T12:45:23.532Z,100789.53
2023-05-11T12:47:51.291Z,100793.47
2023-05-11T12:50:18.459Z,100791.13
2023-05-11T12:52:45.348Z,100769.25
2023-05-11T12:55:12.375Z,100739.34
2023-05-11T12:57:40.157Z,100771.16
2023-05-11T13:00:08.111Z,100773.34
2023-05-11T13:02:35.186Z,100773.88
2023-05-11T13:05:11.728Z,100745.34
2023-05-11T13:07:38.546Z,100726.56
2023-05-11T13:10:05.920Z,100763.16
2023-05-11T13:12:34.480Z,100776.75
2023-05-11T13:15:20.674Z,100763.94
2023-05-11T13:17:47.904Z,100764.56
2023-05-11T13:20:29.811Z,100761.47
2023-05-11T13:23:17.103Z,100757.00
2023-05-11T13:25:46.536Z,100757.69
2023-05-11T13:28:16.810Z,100756.19
2023-05-11T13:30:43.761Z,100711.75
2023-05-11T13:33:10.705Z,100751.31
2023-05-11T13:35:43.476Z,100725.38
2023-05-11T13:38:10.875Z,100707.91
2023-05-11T13:40:37.732Z,100745.56
2023-05-11T13:43:04.854Z,100714.19
2023-05-11T13:45:32.394Z,100743.28
2023-05-11T13:47:59.491Z,100751.34
2023-05-11T13:50:26.874Z,100732.09
2023-05-11T13:52:53.777Z,100740.03
2023-05-11T13:55:21.252Z,100719.41
2023-05-11T13:57:48.580Z,100683.41
2023-05-11T14:00:16.074Z,100696.09
2023-05-11T14:02:44.199Z,100689.13
2023-05-11T14:05:11.186Z,100703.97
2023-05-11T14:07:46.988Z,100719.25
2023-05-11T14:10:18.865Z,100713.34
2023-05-11T14:12:46.415Z,100702.22
2023-05-11T14:15:13.583Z,100686.47
2023-05-11T14:17:43.435Z,100612.88
2023-05-11T14:20:13.829Z,100719.25
2023-05-11T14:22:41.609Z,100701.13
2023-05-11T14:25:09.263Z,100693.09
2023-05-11T14:27:36.347Z,100689.31
2023-05-11T14:30:03.219Z,100674.75
2023-05-11T14:32:30.133Z,100721.91
2023-05-11T14:34:56.872Z,100715.75
2023-05-11T14:37:23.620Z,100667.03
2023-05-11T14:39:50.744Z,100695.44
2023-05-11T14:42:18.512Z,100684.72
2023-05-11T14:44:46.388Z,100689.91
2023-05-11T14:47:13.560Z,100696.31
2023-05-11T14:49:40.300Z,100704.75
2023-05-11T14:52:07.155Z,100673.44
2023-05-11T14:54:35.188Z,100688.38
2023-05-11T14:57:01.955Z,100676.16
2023-05-11T14:59:28.766Z,100648.81
2023-05-11T15:01:55.594Z,100666.91
2023-05-11T15:04:22.564Z,100658.38
2023-05-11T15:06:49.573Z,100632.13
2023-05-11T15:09:16.609Z,100651.97
2023-05-11T15:11:43.495Z,100673.31
2023-05-11T15:14:10.735Z,100657.69
2023-05-11T15:16:38.010Z,100624.25
2023-05-11T15:19:05.618Z,100648.22
2023-05-11T15:21:32.702Z,100629.94
2023-05-11T15:23:59.808Z,100638.25
2023-05-11T15:26:27.057Z,100619.50
2023-05-11T15:28:53.893Z,100571.69
2023-05-11T15:31:21.392Z,100604.59
2023-05-11T15:33:48.330Z,100630.19
2023-05-11T15:36:15.380Z,100568.59
2023-05-11T15:38:42.885Z,100608.28
2023-05-11T15:41:09.734Z,100648.31
2023-05-11T15:43:36.581Z,100629.69
2023-05-11T15:46:07.741Z,100593.94
2023-05-11T15:48:34.540Z,100634.69
2023-05-11T15:51:01.423Z,100588.47
2023-05-11T15:53:28.594Z,100581.84
2023-05-11T15:55:55.930Z,100603.53
2023-05-11T15:58:22.756Z,100593.91
2023-05-11T16:00:49.693Z,100632.44
2023-05-11T16:03:16.891Z,100630.75
2023-05-11T16:05:44.832Z,100627.09
2023-05-11T16:08:12.522Z,100575.53
2023-05-11T16:10:39.297Z,100624.72
2023-05-11T16:15:33.211Z,100619.41
2023-05-11T16:18:03.075Z,100627.09
2023-05-11T16:20:31.623Z,100639.91
2023-05-11T16:22:58.571Z,100618.31
2023-05-11T16:25:25.366Z,100594.38
2023-05-11T16:27:52.115Z,100581.56
2023-05-11T16:30:24.846Z,100616.44
2023-05-11T16:32:52.816Z,100616.78
2023-05-11T16:35:20.001Z,100601.25
2023-05-11T16:37:47.980Z,100621.63
2023-05-11T16:40:18.474Z,100616.66
2023-05-11T16:42:47.144Z,100623.03
2023-05-11T16:45:15.155Z,100608.00
2023-05-11T16:47:42.649Z,100605.16
2023-05-11T16:50:14.177Z,100517.47
2023-05-11T16:52:41.474Z,100621.50
2023-05-11T16:55:08.750Z,100600.72
2023-05-11T16:57:36.012Z,100598.00
2023-05-11T17:00:03.056Z,100620.69
2023-05-11T17:02:29.965Z,100479.19
2023-05-11T17:04:56.962Z,100628.97
2023-05-11T17:07:25.277Z,100609.50
2023-05-11T17:09:56.450Z,100626.81
2023-05-11T17:12:26.193Z,100626.44
2023-05-11T17:14:52.919Z,100635.81
2023-05-11T17:17:19.931Z,100589.56
2023-05-11T17:19:46.867Z,100589.56
2023-05-11T17:22:13.625Z,100603.31
2023-05-11T17:24:41.138Z,100628.25
2023-05-11T17:27:08.202Z,100613.94
2023-05-11T17:29:35.007Z,100620.69
2023-05-11T17:32:02.008Z,100606.47
2023-05-11T17:34:29.939Z,100584.63
2023-05-11T17:36:57.188Z,100604.75
2023-05-11T17:39:24.010Z,100620.16
2023-05-11T17:41:51.010Z,100621.56
2023-05-11T17:44:17.797Z,100620.59
2023-05-11T17:46:45.002Z,100613.00
2023-05-11T17:49:11.832Z,100624.34
2023-05-11T17:51:38.621Z,100618.19
2023-05-11T17:54:05.470Z,100612.84
2023-05-11T17:56:32.390Z,100571.97
2023-05-11T17:58:59.118Z,100627.78
2023-05-11T18:01:27.648Z,100628.81
2023-05-11T18:03:54.803Z,100599.38
2023-05-11T18:06:21.819Z,100625.25
2023-05-11T18:08:48.807Z,100585.38
2023-05-11T18:11:15.688Z,100633.59
2023-05-11T18:13:42.408Z,100601.03
2023-05-11T18:16:09.261Z,100626.16
2023-05-11T18:18:37.074Z,100632.66
2023-05-11T18:21:07.510Z,100611.91
2023-05-11T18:23:34.550Z,100604.78
2023-05-11T18:26:01.512Z,100631.91
2023-05-11T18:28:28.344Z,100570.88
2023-05-11T18:30:55.520Z,100600.00
2023-05-11T18:33:22.675Z,100589.28
2023-05-11T18:35:52.617Z,100516.78
2023-05-11T18:38:19.492Z,100590.56
2023-05-11T18:40:46.592Z,100605.06
2023-05-11T18:43:14.128Z,100617.06
2023-05-11T18:45:41.331Z,100642.19
2023-05-11T18:48:08.403Z,100627.28
2023-05-11T18:50:35.931Z,100646.53
2023-05-11T18:53:02.706Z,100658.03
2023-05-11T18:55:33.201Z,100646.53
2023-05-11T18:58:05.235Z,100652.53
2023-05-11T19:00:37.177Z,100660.22
2023-05-11T19:03:04.317Z,100640.03
2023-05-11T19:05:31.229Z,100650.69
2023-05-11T19:07:58.064Z,100665.63
2023-05-11T19:10:24.928Z,100665.16
2023-05-11T19:12:51.739Z,100665.31
2023-05-11T19:15:18.690Z,100640.28
2023-05-11T19:17:45.725Z,100672.91
2023-05-11T19:20:12.843Z,100670.44
2023-05-11T19:22:39.749Z,100667.47
2023-05-11T19:25:07.520Z,100672.00
2023-05-11T19:27:34.579Z,100671.22
2023-05-11T19:30:01.854Z,100670.09
2023-05-11T19:32:28.774Z,100684.75
2023-05-11T19:34:55.726Z,100685.41
2023-05-11T19:37:22.646Z,100680.41
2023-05-11T19:39:49.509Z,100686.94
2023-05-11T19:42:16.911Z,100662.03
2023-05-11T19:44:49.217Z,100692.09
2023-05-11T19:47:17.804Z,100693.47
2023-05-11T19:49:44.767Z,100700.50
2023-05-11T19:52:11.639Z,100699.50
2023-05-11T19:54:38.550Z,100680.19
2023-05-11T19:57:05.600Z,100665.06
2023-05-11T19:59:35.112Z,100702.16
2023-05-11T20:02:02.429Z,100691.50
2023-05-11T20:04:29.564Z,100648.94
2023-05-11T20:06:57.427Z,100641.75
2023-05-11T20:09:27.832Z,100668.06
2023-05-11T20:11:54.677Z,100671.06
2023-05-11T20:14:21.583Z,100566.06
2023-05-11T20:16:48.451Z,100716.53
2023-05-11T20:19:15.397Z,100642.91
2023-05-11T20:21:42.634Z,100674.03
2023-05-11T20:24:09.646Z,100725.34
2023-05-11T20:26:39.186Z,100713.63
2023-05-11T20:29:07.938Z,100742.13
2023-05-11T20:31:34.964Z,100656.53
2023-05-11T20:36:31.510Z,100736.94
2023-05-11T20:38:59.101Z,100728.25
2023-05-11T20:41:26.073Z,100744.06
2023-05-11T20:43:53.052Z,100741.41
2023-05-11T20:46:20.893Z,100713.75
2023-05-11T20:48:51.557Z,100726.91
2023-05-11T20:51:23.359Z,100769.00
2023-05-11T20:53:50.798Z,100774.50
2023-05-11T20:56:17.576Z,100767.97
2023-05-11T20:58:47.813Z,100662.50
2023-05-11T21:01:14.797Z,100763.13
2023-05-11T21:03:41.722Z,100768.78
2023-05-11T21:06:09.105Z,100756.59
2023-05-11T21:08:36.206Z,100775.63
2023-05-11T21:11:03.041Z,100739.75
2023-05-11T21:13:29.950Z,100750.94
2023-05-11T21:15:56.652Z,100777.09
2023-05-11T21:18:23.574Z,100768.94
2023-05-11T21:20:50.482Z,100764.59
2023-05-11T21:23:17.856Z,100770.59
2023-05-11T21:25:44.586Z,100779.56
2023-05-11T21:28:11.532Z,100775.63
2023-05-11T21:30:38.310Z,100758.59
2023-05-11T21:33:05.088Z,100767.09
2023-05-11T21:35:31.976Z,100799.88
2023-05-11T21:37:58.825Z,100764.25
2023-05-11T21:40:26.043Z,100761.53
2023-05-11T21:42:52.951Z,100744.88
2023-05-11T21:45:20.117Z,100807.66
2023-05-11T21:47:47.201Z,100799.53
2023-05-11T21:50:14.076Z,100801.84
2023-05-11T21:52:40.834Z,100794.53
2023-05-11T21:55:08.107Z,100706.78
2023-05-11T21:57:34.933Z,100783.88
2023-05-11T22:00:02.029Z,100792.88
2023-05-11T22:02:28.991Z,100764.34
2023-05-11T22:04:56.029Z,100790.16
2023-05-11T22:07:23.354Z,100763.13
2023-05-11T22:09:50.159Z,100816.91
2023-05-11T22:12:17.154Z,100787.25
2023-05-11T22:14:43.978Z,100801.09
2023-05-11T22:17:11.144Z,100804.09
2023-05-11T22:19:38.101Z,100760.91
2023-05-11T22:22:05.097Z,100759.25
2023-05-11T22:24:31.956Z,100792.13
2023-05-11T22:26:59.638Z,100790.44
2023-05-11T22:29:26.367Z,100722.91
2023-05-11T22:31:53.135Z,100785.44
2023-05-11T22:34:21.318Z,100758.97
2023-05-11T22:36:48.116Z,100783.78
2023-05-11T22:39:14.881Z,100786.28
2023-05-11T22:41:41.830Z,100795.09
2023-05-11T22:44:08.763Z,100751.09
2023-05-11T22:46:35.872Z,100771.56
2023-05-11T22:49:02.769Z,100799.22
2023-05-11T22:51:29.604Z,100782.03
2023-05-11T22:53:56.345Z,100800.69
2023-05-11T22:56:23.181Z,100802.69
2023-05-11T22:58:50.176Z,100799.38
2023-05-11T23:01:17.091Z,100787.41
2023-05-11T23:03:44.024Z,100792.09
2023-05-11T23:06:10.965Z,100786.03
2023-05-11T23:08:37.715Z,100790.69
2023-05-11T23:11:04.824Z,100757.59
2023-05-11T23:13:31.556Z,100804.75
2023-05-11T23:15:58.472Z,100806.03
2023-05-11T23:18:25.515Z,100803.34
2023-05-11T23:20:58.593Z,100795.00
2023-05-11T23:23:25.852Z,100783.25
2023-05-11T23:25:52.937Z,100697.97
2023-05-11T23:28:20.090Z,100767.34
2023-05-11T23:30:47.564Z,100803.19
2023-05-11T23:33:14.856Z,100804.38
2023-05-11T23:35:41.713Z,100771.53
2023-05-11T23:38:08.622Z,100761.59
2023-05-11T23:40:35.773Z,100798.53
2023-05-11T23:43:02.556Z,100787.78
2023-05-11T23:45:29.328Z,100801.16
2023-05-11T23:47:56.581Z,100794.16
2023-05-11T23:50:23.586Z,100769.03
2023-05-11T23:52:50.471Z,100796.59
2023-05-11T23:55:17.464Z,100787.00
2023-05-11T23:57:45.094Z,100796.00
